Port Heiden, Alaska
Current Conditions -  °F | °C
As of 12:36 PM on Friday 19 Dec 2014 (Local Time) from PAPH Reporting Station
Scattered Clouds Scattered Clouds  
Wind Chill: 18°   Ceiling: Unl
Heat Index: 28°   Visibility: 10mi
Dew Point: 19°   Wind: 13mph
Humidity: 69%   Direction: 40°NE
Pressure: 28.86"   Gusts: NA
Location:  56.95°N, 158.63°W
Report Text: PAPH 192136Z AUTO 04011KT 10SM SCT080 M02/M07 A2886 RMK AO1
Loading
Personal Weather Stations






























Interactive Weather Map New forecast layout! Learn more

10-Day Weather Forecast

Advertisements
Track Severe Weather on mobile